createdAt,value
2019-03-09T00:04:25.685Z,6.10
2019-03-09T00:07:13.581Z,6.10
2019-03-09T00:10:03.433Z,6.10
2019-03-09T00:12:51.357Z,6.10
2019-03-09T00:15:39.257Z,6.20
2019-03-09T00:21:20.622Z,6.20
2019-03-09T00:24:27.749Z,6.20
2019-03-09T00:27:34.878Z,6.20
2019-03-09T00:30:17.785Z,6.20
2019-03-09T00:32:58.297Z,6.20
2019-03-09T00:35:39.461Z,6.20
2019-03-09T00:38:20.700Z,6.30
2019-03-09T00:41:01.501Z,6.30
2019-03-09T00:43:42.535Z,6.40
2019-03-09T00:46:23.760Z,6.40
2019-03-09T00:49:04.488Z,6.40
2019-03-09T00:51:46.001Z,6.50
2019-03-09T00:54:26.654Z,6.50
2019-03-09T00:57:07.669Z,6.50
2019-03-09T00:59:48.365Z,6.50
2019-03-09T01:02:28.769Z,6.50
2019-03-09T01:05:09.305Z,6.50
2019-03-09T01:07:49.721Z,6.50
2019-03-09T01:10:30.395Z,6.50
2019-03-09T01:13:11.341Z,6.50
2019-03-09T01:15:51.997Z,6.40
2019-03-09T01:18:32.658Z,6.40
2019-03-09T01:21:13.165Z,6.40
2019-03-09T01:23:53.961Z,6.40
2019-03-09T01:26:34.322Z,6.30
2019-03-09T01:29:15.136Z,6.30
2019-03-09T01:31:43.704Z,6.30
2019-03-09T01:34:12.254Z,6.20
2019-03-09T01:36:40.845Z,6.20
2019-03-09T01:39:09.548Z,6.10
2019-03-09T01:41:38.185Z,6.10
2019-03-09T01:44:06.784Z,6.00
2019-03-09T01:46:35.342Z,6.00
2019-03-09T01:49:23.792Z,6.00
2019-03-09T01:52:11.744Z,5.90
2019-03-09T01:54:59.712Z,5.90
2019-03-09T01:57:47.631Z,6.00
2019-03-09T02:00:35.550Z,6.00
2019-03-09T02:03:23.656Z,6.00
2019-03-09T02:06:11.593Z,6.00
2019-03-09T02:08:40.288Z,6.00
2019-03-09T02:11:28.216Z,6.00
2019-03-09T02:14:16.113Z,6.00
2019-03-09T02:17:04.237Z,5.90
2019-03-09T02:19:52.136Z,5.60
2019-03-09T02:22:40.072Z,5.90
2019-03-09T02:25:28.014Z,5.90
2019-03-09T02:28:16.526Z,5.80
2019-03-09T02:31:04.495Z,5.80
2019-03-09T02:33:52.397Z,5.80
2019-03-09T02:36:40.323Z,5.70
2019-03-09T02:39:47.409Z,5.70
2019-03-09T02:42:35.338Z,5.70
2019-03-09T02:48:32.240Z,5.60
2019-03-09T02:51:20.175Z,5.60
2019-03-09T02:54:08.086Z,5.60
2019-03-09T02:56:56.068Z,5.60
2019-03-09T02:59:43.974Z,5.60
2019-03-09T03:05:26.453Z,5.50
2019-03-09T03:08:14.397Z,5.50
2019-03-09T03:11:02.295Z,5.50
2019-03-09T03:13:50.242Z,5.50
2019-03-09T03:16:18.805Z,5.50
2019-03-09T03:18:47.403Z,5.50
2019-03-09T03:21:35.331Z,5.50
2019-03-09T03:24:23.235Z,5.50
2019-03-09T03:27:11.139Z,5.50
2019-03-09T03:29:59.095Z,5.50
2019-03-09T03:32:40.159Z,5.60
2019-03-09T03:35:20.979Z,5.60
2019-03-09T03:38:01.689Z,5.60
2019-03-09T03:40:42.530Z,5.60
2019-03-09T03:43:23.834Z,5.60
2019-03-09T03:46:05.068Z,5.60
2019-03-09T03:48:45.902Z,5.60
2019-03-09T03:51:26.290Z,5.60
2019-03-09T03:54:07.290Z,5.60
2019-03-09T03:59:30.672Z,5.60
2019-03-09T04:02:11.115Z,5.70
2019-03-09T04:04:51.877Z,5.70
2019-03-09T04:07:32.797Z,5.60
2019-03-09T04:10:14.033Z,5.60
2019-03-09T04:12:54.809Z,5.70
2019-03-09T04:15:35.397Z,5.70
2019-03-09T04:18:15.831Z,5.70
2019-03-09T04:20:56.769Z,5.70
2019-03-09T04:23:37.578Z,5.70
2019-03-09T04:26:18.230Z,5.80
2019-03-09T04:28:59.434Z,5.80
2019-03-09T04:31:40.395Z,5.80
2019-03-09T04:34:21.601Z,5.80
2019-03-09T04:37:02.942Z,5.80
2019-03-09T04:39:43.305Z,5.80
2019-03-09T04:42:24.645Z,5.90
2019-03-09T04:45:05.302Z,5.90
2019-03-09T04:47:45.902Z,5.90
2019-03-09T04:50:26.962Z,6.00
2019-03-09T04:53:07.617Z,5.90
2019-03-09T04:55:48.749Z,5.90
2019-03-09T04:58:29.372Z,6.00
2019-03-09T05:01:09.854Z,6.00
2019-03-09T05:03:50.590Z,6.00
2019-03-09T05:06:31.413Z,6.10
2019-03-09T05:09:03.158Z,6.10
2019-03-09T05:11:51.046Z,6.10
2019-03-09T05:14:38.977Z,6.10
2019-03-09T05:17:26.898Z,6.20
2019-03-09T05:20:14.897Z,6.20
2019-03-09T05:23:02.988Z,6.30
2019-03-09T05:25:50.927Z,6.30
2019-03-09T05:28:38.833Z,6.40
2019-03-09T05:31:19.869Z,6.40
2019-03-09T05:34:00.368Z,6.50
2019-03-09T05:36:41.304Z,6.50
2019-03-09T05:39:22.079Z,6.50
2019-03-09T05:42:02.533Z,6.50
2019-03-09T05:44:43.101Z,6.50
2019-03-09T05:47:23.640Z,6.50
2019-03-09T05:50:04.749Z,6.50
2019-03-09T05:52:45.640Z,6.50
2019-03-09T05:55:26.441Z,6.50
2019-03-09T05:58:07.554Z,6.50
2019-03-09T06:00:48.461Z,6.60
2019-03-09T06:03:17.009Z,6.60
2019-03-09T06:05:47.407Z,6.60
2019-03-09T06:08:16.124Z,6.70
2019-03-09T06:10:44.680Z,6.70
2019-03-09T06:13:32.616Z,6.70
2019-03-09T06:16:20.522Z,6.80
2019-03-09T06:19:08.445Z,6.80
2019-03-09T06:21:56.377Z,6.90
2019-03-09T06:24:44.307Z,6.90
2019-03-09T06:27:32.241Z,6.90
2019-03-09T06:30:20.174Z,6.90
2019-03-09T06:33:27.394Z,7.00
2019-03-09T06:36:08.057Z,7.10
2019-03-09T06:38:48.931Z,7.10
2019-03-09T06:41:29.369Z,7.00
2019-03-09T06:44:10.693Z,7.00
2019-03-09T06:46:51.313Z,7.00
2019-03-09T06:49:32.636Z,7.00
2019-03-09T06:52:13.527Z,7.00
2019-03-09T06:54:54.628Z,7.00
2019-03-09T06:57:35.324Z,7.00
2019-03-09T07:00:16.306Z,7.10
2019-03-09T07:02:55.449Z,7.20
2019-03-09T07:05:43.376Z,7.20
2019-03-09T07:08:31.315Z,7.30
2019-03-09T07:11:19.344Z,7.30
2019-03-09T07:14:26.584Z,7.40
2019-03-09T07:17:14.523Z,7.40
2019-03-09T07:20:19.660Z,7.40
2019-03-09T07:25:45.858Z,7.50
2019-03-09T07:28:33.788Z,7.50
2019-03-09T07:31:21.760Z,7.60
2019-03-09T07:34:02.385Z,7.60
2019-03-09T07:36:42.969Z,7.70
2019-03-09T07:39:23.936Z,8.10
2019-03-09T07:42:04.528Z,8.50
2019-03-09T07:44:33.084Z,8.50
2019-03-09T07:47:01.652Z,8.30
2019-03-09T07:49:49.576Z,8.20
2019-03-09T07:52:37.567Z,8.10
2019-03-09T07:55:25.549Z,8.00
2019-03-09T07:58:13.453Z,7.90
2019-03-09T08:01:01.384Z,7.90
2019-03-09T08:03:49.293Z,8.00
2019-03-09T08:06:37.222Z,8.00
2019-03-09T08:09:25.121Z,7.90
2019-03-09T08:12:13.061Z,7.90
2019-03-09T08:15:00.954Z,7.90
2019-03-09T08:17:48.901Z,7.90
2019-03-09T08:20:37.341Z,7.90
2019-03-09T08:23:25.277Z,8.00
2019-03-09T08:26:13.182Z,8.00
2019-03-09T08:29:01.105Z,8.00
2019-03-09T08:31:49.017Z,8.00
2019-03-09T08:34:29.457Z,8.20
2019-03-09T08:37:17.381Z,8.20
2019-03-09T08:40:26.269Z,8.40
2019-03-09T08:43:14.243Z,8.70
2019-03-09T08:46:02.153Z,8.90
2019-03-09T08:48:50.063Z,8.90
2019-03-09T08:54:47.046Z,8.70
2019-03-09T09:00:41.808Z,8.60
2019-03-09T09:03:29.696Z,8.60
2019-03-09T09:06:17.666Z,8.60
2019-03-09T09:09:05.809Z,8.60
2019-03-09T09:11:53.744Z,8.60
2019-03-09T09:14:41.636Z,8.70
2019-03-09T09:17:29.589Z,8.70
2019-03-09T09:20:36.831Z,8.70
2019-03-09T09:23:24.757Z,8.80
2019-03-09T09:26:12.697Z,8.90
2019-03-09T09:29:00.588Z,9.00
2019-03-09T09:31:48.512Z,8.90
2019-03-09T09:34:36.403Z,8.90
2019-03-09T09:37:04.988Z,8.80
2019-03-09T09:39:33.553Z,8.80
2019-03-09T09:42:02.145Z,8.90
2019-03-09T09:44:30.752Z,9.00
2019-03-09T09:46:59.437Z,9.10
2019-03-09T09:49:27.988Z,9.10
2019-03-09T09:51:56.580Z,9.10
2019-03-09T09:54:44.520Z,9.10
2019-03-09T09:57:32.447Z,9.20
2019-03-09T10:00:39.677Z,9.30
2019-03-09T10:03:27.598Z,9.50
2019-03-09T10:06:15.496Z,9.50
2019-03-09T10:11:58.452Z,9.50
2019-03-09T10:14:27.006Z,9.60
2019-03-09T10:17:14.932Z,9.80
2019-03-09T10:20:02.872Z,9.80
2019-03-09T10:22:50.839Z,9.70
2019-03-09T10:25:39.748Z,9.60
2019-03-09T10:28:27.593Z,9.40
2019-03-09T10:30:56.356Z,9.40
2019-03-09T10:33:24.893Z,9.40
2019-03-09T10:35:53.791Z,9.40
2019-03-09T10:38:22.521Z,9.40
2019-03-09T10:40:51.292Z,9.40
2019-03-09T10:43:20.404Z,9.40
2019-03-09T10:45:49.043Z,9.60
2019-03-09T10:48:17.715Z,9.70
2019-03-09T10:50:46.280Z,9.80
2019-03-09T10:53:14.852Z,9.80
2019-03-09T10:55:43.510Z,9.80
2019-03-09T10:58:12.065Z,9.70
2019-03-09T11:01:00.000Z,9.60
2019-03-09T11:03:47.928Z,9.60
2019-03-09T11:06:35.855Z,9.50
2019-03-09T11:09:23.765Z,9.50
2019-03-09T11:12:11.770Z,9.60
2019-03-09T11:14:59.699Z,9.70
2019-03-09T11:20:41.580Z,9.80
2019-03-09T11:23:29.508Z,9.70
2019-03-09T11:26:17.404Z,9.60
2019-03-09T11:29:05.303Z,9.70
2019-03-09T11:31:53.233Z,9.70
2019-03-09T11:34:41.158Z,9.60
2019-03-09T11:37:29.076Z,9.60
2019-03-09T11:40:17.000Z,9.80
2019-03-09T11:42:57.732Z,9.90
2019-03-09T11:45:38.531Z,9.90
2019-03-09T11:48:18.992Z,10.10
2019-03-09T11:50:59.705Z,10.30
2019-03-09T11:53:40.502Z,10.40
2019-03-09T11:56:21.079Z,10.40
2019-03-09T11:59:01.768Z,10.40
2019-03-09T12:01:42.210Z,10.30
2019-03-09T12:07:05.988Z,10.10
2019-03-09T12:09:46.494Z,10.10
2019-03-09T12:12:27.508Z,10.10
2019-03-09T12:15:07.953Z,10.10
2019-03-09T12:17:50.482Z,9.90
2019-03-09T12:20:32.006Z,10.30
2019-03-09T12:23:12.417Z,10.30
2019-03-09T12:25:53.745Z,10.30
2019-03-09T12:28:34.670Z,10.30
2019-03-09T12:31:15.445Z,10.20
2019-03-09T12:33:55.976Z,10.20
2019-03-09T12:36:37.265Z,10.10
2019-03-09T12:39:18.809Z,10.00
2019-03-09T12:41:59.782Z,10.00
2019-03-09T12:44:41.133Z,10.00
2019-03-09T12:47:21.889Z,10.10
2019-03-09T12:50:03.157Z,10.10
2019-03-09T12:52:44.092Z,10.10
2019-03-09T12:55:24.617Z,10.20
2019-03-09T12:58:06.025Z,10.30
2019-03-09T13:00:46.982Z,10.40
2019-03-09T13:03:27.768Z,10.40
2019-03-09T13:06:08.544Z,10.50
2019-03-09T13:08:49.217Z,10.50
2019-03-09T13:11:30.112Z,10.50
2019-03-09T13:14:10.698Z,10.50
2019-03-09T13:16:51.588Z,10.40
2019-03-09T13:19:32.113Z,10.20
2019-03-09T13:22:13.064Z,10.00
2019-03-09T13:24:54.399Z,9.90
2019-03-09T13:27:35.505Z,9.90
2019-03-09T13:30:16.769Z,9.60
2019-03-09T13:32:58.121Z,10.00
2019-03-09T13:35:39.294Z,10.00
2019-03-09T13:38:20.343Z,10.00
2019-03-09T13:41:01.156Z,10.10
2019-03-09T13:43:41.821Z,10.20
2019-03-09T13:46:23.406Z,10.30
2019-03-09T13:49:04.352Z,10.30
2019-03-09T13:51:33.384Z,10.40
2019-03-09T13:54:02.056Z,10.40
2019-03-09T13:56:30.656Z,10.30
2019-03-09T13:58:59.602Z,10.30
2019-03-09T14:01:28.646Z,10.20
2019-03-09T14:04:16.542Z,10.10
2019-03-09T14:07:04.988Z,10.00
2019-03-09T14:09:53.425Z,9.90
2019-03-09T14:12:41.387Z,10.00
2019-03-09T14:15:29.284Z,10.10
2019-03-09T14:18:17.226Z,10.20
2019-03-09T14:21:05.189Z,10.10
2019-03-09T14:23:33.808Z,10.10
2019-03-09T14:26:02.453Z,10.10
2019-03-09T14:28:50.513Z,10.20
2019-03-09T14:31:38.561Z,10.20
2019-03-09T14:34:26.499Z,10.20
2019-03-09T14:37:07.489Z,10.00
2019-03-09T14:39:48.049Z,9.90
2019-03-09T14:42:28.440Z,9.80
2019-03-09T14:45:09.794Z,9.70
2019-03-09T14:47:50.961Z,9.60
2019-03-09T14:50:31.673Z,9.50
2019-03-09T14:53:12.417Z,9.40
2019-03-09T14:55:53.260Z,9.50
2019-03-09T14:58:33.896Z,9.60
2019-03-09T15:01:02.464Z,9.60
2019-03-09T15:03:31.381Z,9.50
2019-03-09T15:06:00.118Z,9.50
2019-03-09T15:08:28.793Z,9.50
2019-03-09T15:10:57.858Z,9.40
2019-03-09T15:13:27.313Z,9.30
2019-03-09T15:16:15.204Z,9.20
2019-03-09T15:19:03.462Z,9.20
2019-03-09T15:21:51.460Z,9.20
2019-03-09T15:24:39.392Z,9.20
2019-03-09T15:27:27.351Z,9.10
2019-03-09T15:30:34.640Z,9.20
2019-03-09T15:36:09.981Z,9.20
2019-03-09T15:38:51.373Z,9.20
2019-03-09T15:41:32.528Z,9.30
2019-03-09T15:44:14.056Z,9.30
2019-03-09T15:46:54.862Z,9.20
2019-03-09T15:49:35.645Z,9.30
2019-03-09T15:52:16.439Z,9.20
2019-03-09T15:54:57.269Z,9.10
2019-03-09T15:57:37.970Z,9.10
2019-03-09T16:00:18.645Z,9.00
2019-03-09T16:02:59.567Z,8.70
2019-03-09T16:05:40.650Z,8.60
2019-03-09T16:08:09.766Z,8.50
2019-03-09T16:10:58.194Z,8.50
2019-03-09T16:13:46.575Z,8.30
2019-03-09T16:16:34.615Z,8.00
2019-03-09T16:19:22.738Z,7.60
2019-03-09T16:22:10.781Z,7.40
2019-03-09T16:24:59.055Z,7.20
2019-03-09T16:27:28.479Z,7.00
2019-03-09T16:29:57.267Z,7.00
2019-03-09T16:32:25.910Z,6.90
2019-03-09T16:35:14.084Z,6.90
2019-03-09T16:37:55.477Z,6.80
2019-03-09T16:40:40.403Z,6.70
2019-03-09T16:43:06.965Z,6.60
2019-03-09T16:45:54.893Z,6.60
2019-03-09T16:48:42.788Z,6.60
2019-03-09T16:51:30.716Z,6.50
2019-03-09T16:54:18.656Z,6.50
2019-03-09T16:57:06.584Z,6.60
2019-03-09T16:59:54.645Z,6.50
2019-03-09T17:02:42.581Z,6.40
2019-03-09T17:05:30.516Z,6.40
2019-03-09T17:08:18.423Z,6.40
2019-03-09T17:11:06.354Z,6.40
2019-03-09T17:13:54.244Z,6.50
2019-03-09T17:16:42.190Z,6.50
2019-03-09T17:19:30.223Z,6.50
2019-03-09T17:22:18.228Z,6.70
2019-03-09T17:25:26.826Z,6.70
2019-03-09T17:28:27.092Z,6.80
2019-03-09T17:31:04.364Z,6.80
2019-03-09T17:33:52.318Z,6.80
2019-03-09T17:36:40.240Z,6.90
2019-03-09T17:39:20.649Z,7.00
2019-03-09T17:42:01.693Z,7.10
2019-03-09T17:44:42.630Z,7.20
2019-03-09T17:47:22.979Z,7.20
2019-03-09T17:50:04.331Z,7.20
2019-03-09T17:52:45.514Z,7.10
2019-03-09T17:55:26.652Z,7.60
2019-03-09T17:58:07.444Z,7.70
2019-03-09T18:00:48.650Z,7.30
2019-03-09T18:03:29.637Z,6.90
2019-03-09T18:06:08.803Z,6.70
2019-03-09T18:08:56.696Z,6.40
2019-03-09T18:11:44.622Z,6.40
2019-03-09T18:14:32.657Z,6.50
2019-03-09T18:17:20.705Z,6.50
2019-03-09T18:20:27.945Z,6.50
2019-03-09T18:23:16.238Z,6.50
2019-03-09T18:26:04.323Z,6.50
2019-03-09T18:28:52.279Z,6.50
2019-03-09T18:34:48.772Z,6.60
2019-03-09T18:37:50.526Z,6.60
2019-03-09T18:40:19.484Z,6.50
2019-03-09T18:43:00.097Z,6.50
2019-03-09T18:45:40.817Z,6.40
2019-03-09T18:48:21.616Z,6.10
2019-03-09T18:50:50.158Z,5.80
2019-03-09T18:53:18.785Z,5.60
2019-03-09T18:55:47.381Z,5.50
2019-03-09T18:58:16.340Z,5.50
2019-03-09T19:01:04.355Z,5.50
2019-03-09T19:03:52.268Z,5.50
2019-03-09T19:06:40.184Z,5.50
2019-03-09T19:09:28.103Z,5.50
2019-03-09T19:12:16.464Z,5.50
2019-03-09T19:15:04.960Z,5.50
2019-03-09T19:17:52.889Z,5.40
2019-03-09T19:20:40.785Z,5.40
2019-03-09T19:23:28.742Z,5.30
2019-03-09T19:26:16.653Z,5.30
2019-03-09T19:29:04.643Z,5.30
2019-03-09T19:31:52.549Z,5.60
2019-03-09T19:34:40.856Z,5.20
2019-03-09T19:37:28.784Z,5.30
2019-03-09T19:40:19.899Z,5.20
2019-03-09T19:45:42.914Z,5.30
2019-03-09T19:48:23.725Z,5.30
2019-03-09T19:51:04.249Z,5.30
2019-03-09T19:53:32.899Z,5.30
2019-03-09T19:56:01.616Z,5.30
2019-03-09T19:58:30.657Z,5.40
2019-03-09T20:00:59.266Z,5.40
2019-03-09T20:03:47.173Z,5.50
2019-03-09T20:06:35.104Z,5.50
2019-03-09T20:09:03.749Z,5.60
2019-03-09T20:11:32.356Z,5.60
2019-03-09T20:14:00.956Z,5.60
2019-03-09T20:16:29.540Z,5.60
2019-03-09T20:19:17.458Z,5.70
2019-03-09T20:22:05.446Z,5.70
2019-03-09T20:24:53.343Z,5.70
2019-03-09T20:27:41.456Z,5.80
2019-03-09T20:30:29.385Z,5.70
2019-03-09T20:33:18.195Z,5.70
2019-03-09T20:35:59.438Z,5.70
2019-03-09T20:38:39.994Z,5.70
2019-03-09T20:41:21.309Z,5.70
2019-03-09T20:44:02.333Z,5.70
2019-03-09T20:46:43.276Z,5.70
2019-03-09T20:49:23.932Z,5.70
2019-03-09T20:52:04.879Z,5.70
2019-03-09T20:54:45.216Z,5.70
2019-03-09T20:57:26.102Z,5.70
2019-03-09T21:00:07.237Z,5.70
2019-03-09T21:02:48.074Z,5.80
2019-03-09T21:05:29.245Z,5.80
2019-03-09T21:08:10.650Z,5.90
2019-03-09T21:10:51.764Z,5.90
2019-03-09T21:13:32.795Z,5.90
2019-03-09T21:16:13.468Z,6.00
2019-03-09T21:18:54.660Z,6.00
2019-03-09T21:21:35.561Z,6.00
2019-03-09T21:24:16.090Z,6.00
2019-03-09T21:26:56.619Z,5.90
2019-03-09T21:29:37.609Z,5.90
2019-03-09T21:32:18.434Z,5.90
2019-03-09T21:34:59.328Z,5.80
2019-03-09T21:37:39.970Z,5.90
2019-03-09T21:40:20.741Z,5.80
2019-03-09T21:43:01.998Z,5.80
2019-03-09T21:45:42.454Z,5.70
2019-03-09T21:48:22.893Z,5.70
2019-03-09T21:51:03.788Z,5.70
2019-03-09T21:53:44.737Z,5.70
2019-03-09T21:56:25.773Z,5.80
2019-03-09T21:59:06.902Z,5.80
2019-03-09T22:01:47.829Z,5.90
2019-03-09T22:04:28.468Z,5.40
2019-03-09T22:07:09.049Z,5.90
2019-03-09T22:09:49.764Z,5.90
2019-03-09T22:12:30.451Z,5.90
2019-03-09T22:15:11.647Z,5.90
2019-03-09T22:17:52.840Z,5.90
2019-03-09T22:20:33.542Z,5.90
2019-03-09T22:23:14.293Z,5.90
2019-03-09T22:25:55.584Z,5.80
2019-03-09T22:28:36.109Z,5.80
2019-03-09T22:31:16.731Z,5.70
2019-03-09T22:33:57.844Z,5.70
2019-03-09T22:36:38.711Z,5.60
2019-03-09T22:39:19.059Z,5.60
2019-03-09T22:41:59.729Z,5.50
2019-03-09T22:44:40.572Z,5.50
2019-03-09T22:47:21.569Z,5.40
2019-03-09T22:50:01.913Z,5.40
2019-03-09T22:52:42.553Z,5.20
2019-03-09T22:55:23.304Z,5.30
2019-03-09T22:58:04.012Z,5.20
2019-03-09T23:00:44.644Z,5.20
2019-03-09T23:03:25.933Z,5.10
2019-03-09T23:06:06.960Z,5.10
2019-03-09T23:08:47.301Z,5.10
2019-03-09T23:11:15.892Z,5.10
2019-03-09T23:14:03.788Z,5.20
2019-03-09T23:16:51.729Z,5.20
2019-03-09T23:19:39.625Z,5.10
2019-03-09T23:22:28.325Z,5.10
2019-03-09T23:25:17.098Z,5.10
2019-03-09T23:28:05.032Z,5.10
2019-03-09T23:30:54.473Z,5.10
2019-03-09T23:33:42.514Z,5.10
2019-03-09T23:36:30.424Z,5.10
2019-03-09T23:39:18.355Z,5.00
2019-03-09T23:41:58.809Z,5.10
2019-03-09T23:44:39.585Z,5.10
2019-03-09T23:47:20.489Z,5.10
2019-03-09T23:50:01.217Z,5.10
2019-03-09T23:52:42.569Z,5.10
2019-03-09T23:55:23.312Z,5.10
2019-03-09T23:58:03.896Z,5.10
